Auburndale, Massachusetts
Current Conditions -  °F | °C
As of 4:09 AM on Monday 24 Nov 2014 (Local Time) from KBOS Reporting Station
Haze Haze  
Wind Chill: 44°   Ceiling: 3600
Heat Index: 46°   Visibility: 4mi
Dew Point: 45°   Wind: 5mph
Humidity: 93%   Direction: 70°ENE
Pressure: 29.99"   Gusts: NA
Location:  42.35°N, 70.95°W
Report Text: KBOS 240909Z 07004KT 4SM BR FEW003 BKN036 OVC110 08/07 A2999 RMK AO2
Loading
Personal Weather Stations






























Interactive Weather Map New forecast layout! Learn more

10-Day Weather Forecast

Advertisements
Track Severe Weather on mobile